sensor_id;sensor_type;location;lat;lon;timestamp;temperature;humidity
10294;DHT22;5192;50.328;7.610;2022-10-16T00:01:47;14.80;99.90
10294;DHT22;5192;50.328;7.610;2022-10-16T00:04:13;14.80;99.90
10294;DHT22;5192;50.328;7.610;2022-10-16T00:06:39;14.80;99.90
10294;DHT22;5192;50.328;7.610;2022-10-16T00:09:05;14.90;99.90
10294;DHT22;5192;50.328;7.610;2022-10-16T00:11:36;15.00;99.90
10294;DHT22;5192;50.328;7.610;2022-10-16T00:14:04;14.80;99.90
10294;DHT22;5192;50.328;7.610;2022-10-16T00:16:30;14.90;99.90
10294;DHT22;5192;50.328;7.610;2022-10-16T00:18:56;14.80;99.90
10294;DHT22;5192;50.328;7.610;2022-10-16T00:21:24;14.80;99.90
10294;DHT22;5192;50.328;7.610;2022-10-16T00:23:56;14.90;99.90
10294;DHT22;5192;50.328;7.610;2022-10-16T00:26:23;14.90;99.90
10294;DHT22;5192;50.328;7.610;2022-10-16T00:28:50;14.90;99.90
10294;DHT22;5192;50.328;7.610;2022-10-16T00:31:17;15.10;99.90
10294;DHT22;5192;50.328;7.610;2022-10-16T00:33:43;15.00;99.90
10294;DHT22;5192;50.328;7.610;2022-10-16T00:36:14;15.00;99.90
10294;DHT22;5192;50.328;7.610;2022-10-16T00:38:40;15.00;99.90
10294;DHT22;5192;50.328;7.610;2022-10-16T00:41:09;14.90;99.90
10294;DHT22;5192;50.328;7.610;2022-10-16T00:43:42;14.90;99.90
10294;DHT22;5192;50.328;7.610;2022-10-16T00:46:26;14.90;99.90
10294;DHT22;5192;50.328;7.610;2022-10-16T00:51:36;14.80;99.90
10294;DHT22;5192;50.328;7.610;2022-10-16T00:54:04;14.90;99.90
10294;DHT22;5192;50.328;7.610;2022-10-16T00:56:33;14.70;99.90
10294;DHT22;5192;50.328;7.610;2022-10-16T00:59:02;14.70;99.90
10294;DHT22;5192;50.328;7.610;2022-10-16T01:01:29;14.70;99.90
10294;DHT22;5192;50.328;7.610;2022-10-16T01:03:54;14.70;99.90
10294;DHT22;5192;50.328;7.610;2022-10-16T01:06:31;14.60;99.90
10294;DHT22;5192;50.328;7.610;2022-10-16T01:09:26;14.70;99.90
10294;DHT22;5192;50.328;7.610;2022-10-16T01:12:06;14.60;99.90
10294;DHT22;5192;50.328;7.610;2022-10-16T01:17:19;14.60;99.90
10294;DHT22;5192;50.328;7.610;2022-10-16T01:20:03;14.70;99.90
10294;DHT22;5192;50.328;7.610;2022-10-16T01:22:55;14.80;99.90
10294;DHT22;5192;50.328;7.610;2022-10-16T01:28:13;14.80;99.90
10294;DHT22;5192;50.328;7.610;2022-10-16T01:30:42;14.80;99.90
10294;DHT22;5192;50.328;7.610;2022-10-16T01:33:15;14.80;99.90
10294;DHT22;5192;50.328;7.610;2022-10-16T01:35:44;14.80;99.90
10294;DHT22;5192;50.328;7.610;2022-10-16T01:41:15;14.80;99.90
10294;DHT22;5192;50.328;7.610;2022-10-16T01:43:47;14.80;99.90
10294;DHT22;5192;50.328;7.610;2022-10-16T01:46:16;14.80;99.90
10294;DHT22;5192;50.328;7.610;2022-10-16T01:48:43;14.80;99.90
10294;DHT22;5192;50.328;7.610;2022-10-16T01:51:14;14.80;99.90
10294;DHT22;5192;50.328;7.610;2022-10-16T01:53:41;14.80;99.90
10294;DHT22;5192;50.328;7.610;2022-10-16T01:56:10;14.80;99.90
10294;DHT22;5192;50.328;7.610;2022-10-16T01:59:02;15.00;99.90
10294;DHT22;5192;50.328;7.610;2022-10-16T02:01:27;14.80;99.90
10294;DHT22;5192;50.328;7.610;2022-10-16T02:03:56;14.80;99.90
10294;DHT22;5192;50.328;7.610;2022-10-16T02:06:24;14.80;99.90
10294;DHT22;5192;50.328;7.610;2022-10-16T02:08:50;14.90;99.90
10294;DHT22;5192;50.328;7.610;2022-10-16T02:11:15;14.80;99.90
10294;DHT22;5192;50.328;7.610;2022-10-16T02:13:55;14.80;99.90
10294;DHT22;5192;50.328;7.610;2022-10-16T02:16:39;14.80;99.90
10294;DHT22;5192;50.328;7.610;2022-10-16T02:19:06;14.80;99.90
10294;DHT22;5192;50.328;7.610;2022-10-16T02:21:44;14.80;99.90
10294;DHT22;5192;50.328;7.610;2022-10-16T02:24:34;14.90;99.90
10294;DHT22;5192;50.328;7.610;2022-10-16T02:27:11;14.90;99.90
10294;DHT22;5192;50.328;7.610;2022-10-16T02:29:49;14.90;99.90
10294;DHT22;5192;50.328;7.610;2022-10-16T02:32:21;14.90;99.90
10294;DHT22;5192;50.328;7.610;2022-10-16T02:34:49;14.90;99.90
10294;DHT22;5192;50.328;7.610;2022-10-16T02:37:16;14.90;99.90
10294;DHT22;5192;50.328;7.610;2022-10-16T02:39:43;14.80;99.90
10294;DHT22;5192;50.328;7.610;2022-10-16T02:42:13;14.80;99.90
10294;DHT22;5192;50.328;7.610;2022-10-16T02:44:39;14.70;99.90
10294;DHT22;5192;50.328;7.610;2022-10-16T02:47:04;14.70;99.90
10294;DHT22;5192;50.328;7.610;2022-10-16T02:49:30;14.70;99.90
10294;DHT22;5192;50.328;7.610;2022-10-16T02:51:56;14.60;99.90
10294;DHT22;5192;50.328;7.610;2022-10-16T02:54:21;14.60;99.90
10294;DHT22;5192;50.328;7.610;2022-10-16T02:56:47;14.60;99.90
10294;DHT22;5192;50.328;7.610;2022-10-16T02:59:12;14.50;99.90
10294;DHT22;5192;50.328;7.610;2022-10-16T03:01:38;14.60;99.90
10294;DHT22;5192;50.328;7.610;2022-10-16T03:04:03;14.60;99.90
10294;DHT22;5192;50.328;7.610;2022-10-16T03:06:29;14.50;99.90
10294;DHT22;5192;50.328;7.610;2022-10-16T03:08:55;14.50;99.90
10294;DHT22;5192;50.328;7.610;2022-10-16T03:11:20;14.50;99.90
10294;DHT22;5192;50.328;7.610;2022-10-16T03:13:46;14.50;99.90
10294;DHT22;5192;50.328;7.610;2022-10-16T03:16:11;14.50;99.90
10294;DHT22;5192;50.328;7.610;2022-10-16T03:18:37;14.50;99.90
10294;DHT22;5192;50.328;7.610;2022-10-16T03:21:03;14.40;99.90
10294;DHT22;5192;50.328;7.610;2022-10-16T03:23:28;14.40;99.90
10294;DHT22;5192;50.328;7.610;2022-10-16T03:25:54;14.40;99.90
10294;DHT22;5192;50.328;7.610;2022-10-16T03:28:20;14.30;99.90
10294;DHT22;5192;50.328;7.610;2022-10-16T03:30:45;14.30;99.90
10294;DHT22;5192;50.328;7.610;2022-10-16T03:33:11;14.30;99.90
10294;DHT22;5192;50.328;7.610;2022-10-16T03:35:37;14.20;99.90
10294;DHT22;5192;50.328;7.610;2022-10-16T03:38:03;14.20;99.90
10294;DHT22;5192;50.328;7.610;2022-10-16T03:40:28;14.20;99.90
10294;DHT22;5192;50.328;7.610;2022-10-16T03:42:54;14.10;99.90
10294;DHT22;5192;50.328;7.610;2022-10-16T03:45:23;14.10;99.90
10294;DHT22;5192;50.328;7.610;2022-10-16T03:47:48;14.00;99.90
10294;DHT22;5192;50.328;7.610;2022-10-16T03:50:14;14.00;99.90
10294;DHT22;5192;50.328;7.610;2022-10-16T03:52:39;14.20;99.90
10294;DHT22;5192;50.328;7.610;2022-10-16T03:55:05;14.10;99.90
10294;DHT22;5192;50.328;7.610;2022-10-16T03:57:31;14.00;99.90
10294;DHT22;5192;50.328;7.610;2022-10-16T03:59:57;14.00;99.90
10294;DHT22;5192;50.328;7.610;2022-10-16T04:02:22;14.10;99.90
10294;DHT22;5192;50.328;7.610;2022-10-16T04:04:48;14.10;99.90
10294;DHT22;5192;50.328;7.610;2022-10-16T04:07:13;14.10;99.90
10294;DHT22;5192;50.328;7.610;2022-10-16T04:09:39;14.10;99.90
10294;DHT22;5192;50.328;7.610;2022-10-16T04:12:05;14.10;99.90
10294;DHT22;5192;50.328;7.610;2022-10-16T04:14:30;14.00;99.90
10294;DHT22;5192;50.328;7.610;2022-10-16T04:16:56;14.00;99.90
10294;DHT22;5192;50.328;7.610;2022-10-16T04:19:21;14.00;99.90
10294;DHT22;5192;50.328;7.610;2022-10-16T04:21:47;14.10;99.90
10294;DHT22;5192;50.328;7.610;2022-10-16T04:24:12;14.10;99.90
10294;DHT22;5192;50.328;7.610;2022-10-16T04:26:38;14.00;99.90
10294;DHT22;5192;50.328;7.610;2022-10-16T04:29:04;14.10;99.90
10294;DHT22;5192;50.328;7.610;2022-10-16T04:31:29;14.10;99.90
10294;DHT22;5192;50.328;7.610;2022-10-16T04:33:55;14.10;99.90
10294;DHT22;5192;50.328;7.610;2022-10-16T04:36:21;14.20;99.90
10294;DHT22;5192;50.328;7.610;2022-10-16T04:38:46;14.00;99.90
10294;DHT22;5192;50.328;7.610;2022-10-16T04:41:12;14.00;99.90
10294;DHT22;5192;50.328;7.610;2022-10-16T04:43:38;14.00;99.90
10294;DHT22;5192;50.328;7.610;2022-10-16T04:46:03;14.00;99.90
10294;DHT22;5192;50.328;7.610;2022-10-16T04:48:30;14.10;99.90
10294;DHT22;5192;50.328;7.610;2022-10-16T04:50:56;14.10;99.90
10294;DHT22;5192;50.328;7.610;2022-10-16T04:53:22;14.10;99.90
10294;DHT22;5192;50.328;7.610;2022-10-16T04:55:47;14.20;99.90
10294;DHT22;5192;50.328;7.610;2022-10-16T04:58:13;14.20;99.90
10294;DHT22;5192;50.328;7.610;2022-10-16T05:00:38;14.20;99.90
10294;DHT22;5192;50.328;7.610;2022-10-16T05:03:04;14.20;99.90
10294;DHT22;5192;50.328;7.610;2022-10-16T05:05:33;14.20;99.90
10294;DHT22;5192;50.328;7.610;2022-10-16T05:07:59;14.20;99.90
10294;DHT22;5192;50.328;7.610;2022-10-16T05:10:24;14.10;99.90
10294;DHT22;5192;50.328;7.610;2022-10-16T05:12:50;14.10;99.90
10294;DHT22;5192;50.328;7.610;2022-10-16T05:15:16;14.10;99.90
10294;DHT22;5192;50.328;7.610;2022-10-16T05:17:42;14.10;99.90
10294;DHT22;5192;50.328;7.610;2022-10-16T05:20:08;14.00;99.90
10294;DHT22;5192;50.328;7.610;2022-10-16T05:22:33;14.00;99.90
10294;DHT22;5192;50.328;7.610;2022-10-16T05:24:59;14.00;99.90
10294;DHT22;5192;50.328;7.610;2022-10-16T05:27:24;14.00;99.90
10294;DHT22;5192;50.328;7.610;2022-10-16T05:29:50;14.00;99.90
10294;DHT22;5192;50.328;7.610;2022-10-16T05:32:17;14.10;99.90
10294;DHT22;5192;50.328;7.610;2022-10-16T05:34:43;14.10;99.90
10294;DHT22;5192;50.328;7.610;2022-10-16T05:37:09;14.10;99.90
10294;DHT22;5192;50.328;7.610;2022-10-16T05:39:37;14.10;99.90
10294;DHT22;5192;50.328;7.610;2022-10-16T05:42:03;14.10;99.90
10294;DHT22;5192;50.328;7.610;2022-10-16T05:44:29;14.10;99.90
10294;DHT22;5192;50.328;7.610;2022-10-16T05:46:54;14.20;99.90
10294;DHT22;5192;50.328;7.610;2022-10-16T05:49:20;14.10;99.90
10294;DHT22;5192;50.328;7.610;2022-10-16T05:51:46;14.10;99.90
10294;DHT22;5192;50.328;7.610;2022-10-16T05:54:11;14.00;99.90
10294;DHT22;5192;50.328;7.610;2022-10-16T05:56:37;13.90;99.90
10294;DHT22;5192;50.328;7.610;2022-10-16T05:59:05;14.00;99.90
10294;DHT22;5192;50.328;7.610;2022-10-16T06:01:31;14.00;99.90
10294;DHT22;5192;50.328;7.610;2022-10-16T06:03:57;14.00;99.90
10294;DHT22;5192;50.328;7.610;2022-10-16T06:06:26;14.10;99.90
10294;DHT22;5192;50.328;7.610;2022-10-16T06:08:53;14.00;99.90
10294;DHT22;5192;50.328;7.610;2022-10-16T06:11:21;14.00;99.90
10294;DHT22;5192;50.328;7.610;2022-10-16T06:13:51;14.00;99.90
10294;DHT22;5192;50.328;7.610;2022-10-16T06:16:17;14.10;99.90
10294;DHT22;5192;50.328;7.610;2022-10-16T06:18:43;14.10;99.90
10294;DHT22;5192;50.328;7.610;2022-10-16T06:21:15;14.10;99.90
10294;DHT22;5192;50.328;7.610;2022-10-16T06:23:41;14.10;99.90
10294;DHT22;5192;50.328;7.610;2022-10-16T06:26:08;14.10;99.90
10294;DHT22;5192;50.328;7.610;2022-10-16T06:28:34;14.20;99.90
10294;DHT22;5192;50.328;7.610;2022-10-16T06:31:01;14.20;99.90
10294;DHT22;5192;50.328;7.610;2022-10-16T06:33:27;14.20;99.90
10294;DHT22;5192;50.328;7.610;2022-10-16T06:35:52;14.30;99.90
10294;DHT22;5192;50.328;7.610;2022-10-16T06:38:18;14.30;99.90
10294;DHT22;5192;50.328;7.610;2022-10-16T06:40:44;14.30;99.90
10294;DHT22;5192;50.328;7.610;2022-10-16T06:43:09;14.40;99.90
10294;DHT22;5192;50.328;7.610;2022-10-16T06:45:35;14.40;99.90
10294;DHT22;5192;50.328;7.610;2022-10-16T06:48:00;14.50;99.90
10294;DHT22;5192;50.328;7.610;2022-10-16T06:50:26;14.50;99.90
10294;DHT22;5192;50.328;7.610;2022-10-16T06:52:51;14.60;99.90
10294;DHT22;5192;50.328;7.610;2022-10-16T06:55:17;14.60;99.90
10294;DHT22;5192;50.328;7.610;2022-10-16T06:57:43;14.60;99.90
10294;DHT22;5192;50.328;7.610;2022-10-16T07:00:09;14.60;99.90
10294;DHT22;5192;50.328;7.610;2022-10-16T07:02:35;14.70;99.90
10294;DHT22;5192;50.328;7.610;2022-10-16T07:05:00;14.70;99.90
10294;DHT22;5192;50.328;7.610;2022-10-16T07:07:26;14.70;99.90
10294;DHT22;5192;50.328;7.610;2022-10-16T07:09:52;14.70;99.90
10294;DHT22;5192;50.328;7.610;2022-10-16T07:12:17;14.60;99.90
10294;DHT22;5192;50.328;7.610;2022-10-16T07:14:43;14.60;99.90
10294;DHT22;5192;50.328;7.610;2022-10-16T07:17:08;14.60;99.90
10294;DHT22;5192;50.328;7.610;2022-10-16T07:19:34;14.60;99.90
10294;DHT22;5192;50.328;7.610;2022-10-16T07:22:00;14.50;99.90
10294;DHT22;5192;50.328;7.610;2022-10-16T07:24:26;14.50;99.90
10294;DHT22;5192;50.328;7.610;2022-10-16T07:26:51;14.50;99.90
10294;DHT22;5192;50.328;7.610;2022-10-16T07:29:20;14.50;99.90
10294;DHT22;5192;50.328;7.610;2022-10-16T07:31:47;14.50;99.90
10294;DHT22;5192;50.328;7.610;2022-10-16T07:34:14;14.50;99.90
10294;DHT22;5192;50.328;7.610;2022-10-16T07:36:40;14.60;99.90
10294;DHT22;5192;50.328;7.610;2022-10-16T07:39:05;14.80;99.90
10294;DHT22;5192;50.328;7.610;2022-10-16T07:41:31;14.70;99.90
10294;DHT22;5192;50.328;7.610;2022-10-16T07:43:58;14.70;99.90
10294;DHT22;5192;50.328;7.610;2022-10-16T07:46:27;14.70;99.90
10294;DHT22;5192;50.328;7.610;2022-10-16T07:48:53;14.80;99.90
10294;DHT22;5192;50.328;7.610;2022-10-16T07:51:21;14.90;99.90
10294;DHT22;5192;50.328;7.610;2022-10-16T07:53:47;14.90;99.90
10294;DHT22;5192;50.328;7.610;2022-10-16T07:56:13;15.00;99.90
10294;DHT22;5192;50.328;7.610;2022-10-16T07:58:39;15.00;99.90
10294;DHT22;5192;50.328;7.610;2022-10-16T08:01:07;15.00;99.90
10294;DHT22;5192;50.328;7.610;2022-10-16T08:03:34;15.10;99.90
10294;DHT22;5192;50.328;7.610;2022-10-16T08:06:00;15.20;99.90
10294;DHT22;5192;50.328;7.610;2022-10-16T08:08:26;15.20;99.90
10294;DHT22;5192;50.328;7.610;2022-10-16T08:10:52;15.30;99.90
10294;DHT22;5192;50.328;7.610;2022-10-16T08:13:18;15.30;99.90
10294;DHT22;5192;50.328;7.610;2022-10-16T08:15:44;15.30;99.90
10294;DHT22;5192;50.328;7.610;2022-10-16T08:18:11;15.40;99.90
10294;DHT22;5192;50.328;7.610;2022-10-16T08:20:38;15.40;99.90
10294;DHT22;5192;50.328;7.610;2022-10-16T08:23:04;15.40;99.90
10294;DHT22;5192;50.328;7.610;2022-10-16T08:25:29;15.50;99.90
10294;DHT22;5192;50.328;7.610;2022-10-16T08:27:55;15.50;99.90
10294;DHT22;5192;50.328;7.610;2022-10-16T08:30:22;15.60;99.90
10294;DHT22;5192;50.328;7.610;2022-10-16T08:32:48;15.70;99.90
10294;DHT22;5192;50.328;7.610;2022-10-16T08:35:14;15.80;99.90
10294;DHT22;5192;50.328;7.610;2022-10-16T08:37:40;15.90;99.90
10294;DHT22;5192;50.328;7.610;2022-10-16T08:40:16;16.00;99.90
10294;DHT22;5192;50.328;7.610;2022-10-16T08:42:55;16.00;99.90
10294;DHT22;5192;50.328;7.610;2022-10-16T08:48:22;16.20;99.90
10294;DHT22;5192;50.328;7.610;2022-10-16T08:50:52;16.20;99.90
10294;DHT22;5192;50.328;7.610;2022-10-16T08:53:56;16.30;99.90
10294;DHT22;5192;50.328;7.610;2022-10-16T08:56:24;16.30;99.90
10294;DHT22;5192;50.328;7.610;2022-10-16T08:58:51;16.50;99.90
10294;DHT22;5192;50.328;7.610;2022-10-16T09:01:19;16.50;99.90
10294;DHT22;5192;50.328;7.610;2022-10-16T09:09:18;16.60;99.90
10294;DHT22;5192;50.328;7.610;2022-10-16T09:12:03;16.70;99.90
10294;DHT22;5192;50.328;7.610;2022-10-16T09:15:32;16.90;99.90
10294;DHT22;5192;50.328;7.610;2022-10-16T09:17:50;16.90;99.90
10294;DHT22;5192;50.328;7.610;2022-10-16T09:23:19;17.40;99.90
10294;DHT22;5192;50.328;7.610;2022-10-16T09:25:47;17.50;99.90
10294;DHT22;5192;50.328;7.610;2022-10-16T09:28:14;17.50;99.90
10294;DHT22;5192;50.328;7.610;2022-10-16T09:30:40;17.50;99.90
10294;DHT22;5192;50.328;7.610;2022-10-16T09:33:08;17.40;99.90
10294;DHT22;5192;50.328;7.610;2022-10-16T09:35:42;17.30;99.90
10294;DHT22;5192;50.328;7.610;2022-10-16T09:38:09;17.30;99.90
10294;DHT22;5192;50.328;7.610;2022-10-16T09:40:39;17.30;99.90
10294;DHT22;5192;50.328;7.610;2022-10-16T09:45:43;17.20;99.90
10294;DHT22;5192;50.328;7.610;2022-10-16T09:48:19;17.10;99.90
10294;DHT22;5192;50.328;7.610;2022-10-16T09:50:56;17.20;99.90
10294;DHT22;5192;50.328;7.610;2022-10-16T09:53:21;17.40;99.90
10294;DHT22;5192;50.328;7.610;2022-10-16T09:55:53;17.40;99.90
10294;DHT22;5192;50.328;7.610;2022-10-16T09:58:23;17.60;99.90
10294;DHT22;5192;50.328;7.610;2022-10-16T10:00:52;17.60;99.90
10294;DHT22;5192;50.328;7.610;2022-10-16T10:03:33;17.60;99.90
10294;DHT22;5192;50.328;7.610;2022-10-16T10:06:06;17.60;99.90
10294;DHT22;5192;50.328;7.610;2022-10-16T10:08:32;17.60;99.90
10294;DHT22;5192;50.328;7.610;2022-10-16T10:10:58;17.60;99.90
10294;DHT22;5192;50.328;7.610;2022-10-16T10:13:25;17.50;99.90
10294;DHT22;5192;50.328;7.610;2022-10-16T10:15:52;17.60;99.90
10294;DHT22;5192;50.328;7.610;2022-10-16T10:18:21;17.70;99.90
10294;DHT22;5192;50.328;7.610;2022-10-16T10:21:01;17.90;99.90
10294;DHT22;5192;50.328;7.610;2022-10-16T10:23:28;18.10;99.90
10294;DHT22;5192;50.328;7.610;2022-10-16T10:26:20;18.00;98.80
10294;DHT22;5192;50.328;7.610;2022-10-16T10:29:06;18.10;99.90
10294;DHT22;5192;50.328;7.610;2022-10-16T10:37:22;18.50;84.80
10294;DHT22;5192;50.328;7.610;2022-10-16T10:40:13;18.70;91.10
10294;DHT22;5192;50.328;7.610;2022-10-16T10:43:04;18.80;85.10
10294;DHT22;5192;50.328;7.610;2022-10-16T10:45:44;18.70;72.30
10294;DHT22;5192;50.328;7.610;2022-10-16T10:54:51;18.60;71.00
10294;DHT22;5192;50.328;7.610;2022-10-16T10:58:20;18.70;70.10
10294;DHT22;5192;50.328;7.610;2022-10-16T11:06:08;19.20;65.30
10294;DHT22;5192;50.328;7.610;2022-10-16T11:09:21;19.40;64.60
10294;DHT22;5192;50.328;7.610;2022-10-16T11:11:36;19.60;59.10
10294;DHT22;5192;50.328;7.610;2022-10-16T11:14:40;19.40;55.30
10294;DHT22;5192;50.328;7.610;2022-10-16T11:17:11;19.50;55.00
10294;DHT22;5192;50.328;7.610;2022-10-16T11:19:48;19.70;43.70
10294;DHT22;5192;50.328;7.610;2022-10-16T11:22:31;19.90;40.80
10294;DHT22;5192;50.328;7.610;2022-10-16T11:25:16;20.30;46.80
10294;DHT22;5192;50.328;7.610;2022-10-16T11:28:02;20.60;37.80
10294;DHT22;5192;50.328;7.610;2022-10-16T11:30:34;21.00;24.20
10294;DHT22;5192;50.328;7.610;2022-10-16T11:36:17;20.70;26.80
10294;DHT22;5192;50.328;7.610;2022-10-16T11:41:41;20.70;35.70
10294;DHT22;5192;50.328;7.610;2022-10-16T11:49:50;20.50;31.70
10294;DHT22;5192;50.328;7.610;2022-10-16T11:52:28;20.20;32.40
10294;DHT22;5192;50.328;7.610;2022-10-16T11:57:38;20.70;25.90
10294;DHT22;5192;50.328;7.610;2022-10-16T12:00:06;20.50;32.60
10294;DHT22;5192;50.328;7.610;2022-10-16T12:02:44;20.60;34.40
10294;DHT22;5192;50.328;7.610;2022-10-16T12:08:14;20.60;35.50
10294;DHT22;5192;50.328;7.610;2022-10-16T12:10:43;20.60;36.10
10294;DHT22;5192;50.328;7.610;2022-10-16T12:16:27;20.50;35.40
10294;DHT22;5192;50.328;7.610;2022-10-16T12:19:10;20.30;49.50
10294;DHT22;5192;50.328;7.610;2022-10-16T12:21:36;20.20;38.10
10294;DHT22;5192;50.328;7.610;2022-10-16T12:24:03;20.20;47.90
10294;DHT22;5192;50.328;7.610;2022-10-16T12:26:33;20.00;46.80
10294;DHT22;5192;50.328;7.610;2022-10-16T12:29:19;20.00;54.60
10294;DHT22;5192;50.328;7.610;2022-10-16T12:31:47;20.10;55.60
10294;DHT22;5192;50.328;7.610;2022-10-16T12:34:40;20.10;48.30
10294;DHT22;5192;50.328;7.610;2022-10-16T12:39:35;20.10;40.90
10294;DHT22;5192;50.328;7.610;2022-10-16T12:42:04;20.10;48.80
10294;DHT22;5192;50.328;7.610;2022-10-16T12:44:35;20.10;48.00
10294;DHT22;5192;50.328;7.610;2022-10-16T12:47:02;20.00;42.00
10294;DHT22;5192;50.328;7.610;2022-10-16T12:51:53;19.90;46.80
10294;DHT22;5192;50.328;7.610;2022-10-16T12:54:25;19.90;56.50
10294;DHT22;5192;50.328;7.610;2022-10-16T13:00:04;19.90;53.60
10294;DHT22;5192;50.328;7.610;2022-10-16T13:17:01;20.20;55.60
10294;DHT22;5192;50.328;7.610;2022-10-16T13:28:06;20.50;40.60
10294;DHT22;5192;50.328;7.610;2022-10-16T13:30:54;20.80;40.80
10294;DHT22;5192;50.328;7.610;2022-10-16T13:34:02;20.90;38.40
10294;DHT22;5192;50.328;7.610;2022-10-16T13:36:25;20.60;31.20
10294;DHT22;5192;50.328;7.610;2022-10-16T13:39:13;20.50;36.70
10294;DHT22;5192;50.328;7.610;2022-10-16T13:41:39;20.40;45.60
10294;DHT22;5192;50.328;7.610;2022-10-16T13:44:14;20.50;43.40
10294;DHT22;5192;50.328;7.610;2022-10-16T13:46:40;20.60;49.60
10294;DHT22;5192;50.328;7.610;2022-10-16T13:49:15;20.60;65.40
10294;DHT22;5192;50.328;7.610;2022-10-16T13:51:41;20.60;63.60
10294;DHT22;5192;50.328;7.610;2022-10-16T13:54:18;20.50;63.40
10294;DHT22;5192;50.328;7.610;2022-10-16T13:56:44;20.30;65.30
10294;DHT22;5192;50.328;7.610;2022-10-16T13:59:26;20.00;67.70
10294;DHT22;5192;50.328;7.610;2022-10-16T14:01:55;19.90;61.50
10294;DHT22;5192;50.328;7.610;2022-10-16T14:04:23;19.80;62.00
10294;DHT22;5192;50.328;7.610;2022-10-16T14:06:50;19.80;62.20
10294;DHT22;5192;50.328;7.610;2022-10-16T14:09:26;19.90;62.70
10294;DHT22;5192;50.328;7.610;2022-10-16T14:12:00;19.80;61.40
10294;DHT22;5192;50.328;7.610;2022-10-16T14:14:47;19.70;68.30
10294;DHT22;5192;50.328;7.610;2022-10-16T14:17:26;19.70;67.50
10294;DHT22;5192;50.328;7.610;2022-10-16T14:19:55;19.90;78.10
10294;DHT22;5192;50.328;7.610;2022-10-16T14:22:38;20.00;82.60
10294;DHT22;5192;50.328;7.610;2022-10-16T14:30:27;19.90;63.80
10294;DHT22;5192;50.328;7.610;2022-10-16T14:36:13;20.10;72.10
10294;DHT22;5192;50.328;7.610;2022-10-16T14:38:43;20.20;89.90
10294;DHT22;5192;50.328;7.610;2022-10-16T14:41:13;20.20;85.90
10294;DHT22;5192;50.328;7.610;2022-10-16T14:43:41;20.10;60.60
10294;DHT22;5192;50.328;7.610;2022-10-16T14:46:16;19.90;69.70
10294;DHT22;5192;50.328;7.610;2022-10-16T14:48:44;19.80;66.30
10294;DHT22;5192;50.328;7.610;2022-10-16T14:51:15;19.80;86.50
10294;DHT22;5192;50.328;7.610;2022-10-16T14:53:40;19.80;88.30
10294;DHT22;5192;50.328;7.610;2022-10-16T14:56:16;19.80;99.90
10294;DHT22;5192;50.328;7.610;2022-10-16T14:58:43;19.70;99.90
10294;DHT22;5192;50.328;7.610;2022-10-16T15:01:10;19.70;99.90
10294;DHT22;5192;50.328;7.610;2022-10-16T15:03:37;19.60;99.90
10294;DHT22;5192;50.328;7.610;2022-10-16T15:06:03;19.60;99.90
10294;DHT22;5192;50.328;7.610;2022-10-16T15:08:29;19.60;99.90
10294;DHT22;5192;50.328;7.610;2022-10-16T15:10:54;19.70;99.90
10294;DHT22;5192;50.328;7.610;2022-10-16T15:13:20;19.60;99.90
10294;DHT22;5192;50.328;7.610;2022-10-16T15:15:46;19.60;99.90
10294;DHT22;5192;50.328;7.610;2022-10-16T15:18:13;19.50;99.90
10294;DHT22;5192;50.328;7.610;2022-10-16T15:20:40;19.50;99.90
10294;DHT22;5192;50.328;7.610;2022-10-16T15:23:12;19.50;99.90
10294;DHT22;5192;50.328;7.610;2022-10-16T15:25:43;19.40;99.90
10294;DHT22;5192;50.328;7.610;2022-10-16T15:28:10;19.40;99.90
10294;DHT22;5192;50.328;7.610;2022-10-16T15:30:36;19.20;99.90
10294;DHT22;5192;50.328;7.610;2022-10-16T15:33:03;19.10;99.90
10294;DHT22;5192;50.328;7.610;2022-10-16T15:35:29;19.00;99.90
10294;DHT22;5192;50.328;7.610;2022-10-16T15:37:55;18.90;99.90
10294;DHT22;5192;50.328;7.610;2022-10-16T15:40:21;18.80;99.90
10294;DHT22;5192;50.328;7.610;2022-10-16T15:42:48;18.70;99.90
10294;DHT22;5192;50.328;7.610;2022-10-16T15:45:14;18.60;99.90
10294;DHT22;5192;50.328;7.610;2022-10-16T15:47:41;18.50;99.90
10294;DHT22;5192;50.328;7.610;2022-10-16T15:50:07;18.50;99.90
10294;DHT22;5192;50.328;7.610;2022-10-16T15:52:34;18.40;99.90
10294;DHT22;5192;50.328;7.610;2022-10-16T15:54:59;18.40;99.90
10294;DHT22;5192;50.328;7.610;2022-10-16T15:57:25;18.30;99.90
10294;DHT22;5192;50.328;7.610;2022-10-16T15:59:52;18.30;99.90
10294;DHT22;5192;50.328;7.610;2022-10-16T16:02:18;18.20;99.90
10294;DHT22;5192;50.328;7.610;2022-10-16T16:04:43;18.20;99.90
10294;DHT22;5192;50.328;7.610;2022-10-16T16:07:09;18.10;99.90
10294;DHT22;5192;50.328;7.610;2022-10-16T16:09:35;18.00;99.90
10294;DHT22;5192;50.328;7.610;2022-10-16T16:12:01;18.00;99.90
10294;DHT22;5192;50.328;7.610;2022-10-16T16:14:27;18.00;99.90
10294;DHT22;5192;50.328;7.610;2022-10-16T16:16:54;18.00;99.90
10294;DHT22;5192;50.328;7.610;2022-10-16T16:19:20;18.00;99.90
10294;DHT22;5192;50.328;7.610;2022-10-16T16:21:47;18.00;99.90
10294;DHT22;5192;50.328;7.610;2022-10-16T16:24:12;17.90;99.90
10294;DHT22;5192;50.328;7.610;2022-10-16T16:26:38;17.80;99.90
10294;DHT22;5192;50.328;7.610;2022-10-16T16:29:05;17.80;99.90
10294;DHT22;5192;50.328;7.610;2022-10-16T16:31:32;17.80;99.90
10294;DHT22;5192;50.328;7.610;2022-10-16T16:33:58;17.80;99.90
10294;DHT22;5192;50.328;7.610;2022-10-16T16:36:25;17.80;99.90
10294;DHT22;5192;50.328;7.610;2022-10-16T16:38:51;17.80;99.90
10294;DHT22;5192;50.328;7.610;2022-10-16T16:41:19;17.70;99.90
10294;DHT22;5192;50.328;7.610;2022-10-16T16:43:45;17.70;99.90
10294;DHT22;5192;50.328;7.610;2022-10-16T16:46:13;17.70;99.90
10294;DHT22;5192;50.328;7.610;2022-10-16T16:48:40;17.60;99.90
10294;DHT22;5192;50.328;7.610;2022-10-16T16:51:07;17.60;99.90
10294;DHT22;5192;50.328;7.610;2022-10-16T16:53:34;17.60;99.90
10294;DHT22;5192;50.328;7.610;2022-10-16T16:56:04;17.40;99.90
10294;DHT22;5192;50.328;7.610;2022-10-16T16:58:30;17.40;99.90
10294;DHT22;5192;50.328;7.610;2022-10-16T17:00:56;17.40;99.90
10294;DHT22;5192;50.328;7.610;2022-10-16T17:03:28;17.40;99.90
10294;DHT22;5192;50.328;7.610;2022-10-16T17:06:05;17.40;99.90
10294;DHT22;5192;50.328;7.610;2022-10-16T17:08:32;17.40;99.90
10294;DHT22;5192;50.328;7.610;2022-10-16T17:10:58;17.40;99.90
10294;DHT22;5192;50.328;7.610;2022-10-16T17:13:33;17.40;99.90
10294;DHT22;5192;50.328;7.610;2022-10-16T17:16:04;17.40;99.90
10294;DHT22;5192;50.328;7.610;2022-10-16T17:18:30;17.30;99.90
10294;DHT22;5192;50.328;7.610;2022-10-16T17:20:59;17.40;99.90
10294;DHT22;5192;50.328;7.610;2022-10-16T17:23:24;17.30;99.90
10294;DHT22;5192;50.328;7.610;2022-10-16T17:25:50;17.30;99.90
10294;DHT22;5192;50.328;7.610;2022-10-16T17:28:15;17.30;99.90
10294;DHT22;5192;50.328;7.610;2022-10-16T17:30:42;17.30;99.90
10294;DHT22;5192;50.328;7.610;2022-10-16T17:33:09;17.30;99.90
10294;DHT22;5192;50.328;7.610;2022-10-16T17:35:36;17.30;99.90
10294;DHT22;5192;50.328;7.610;2022-10-16T17:38:03;17.20;99.90
10294;DHT22;5192;50.328;7.610;2022-10-16T17:40:28;17.20;99.90
10294;DHT22;5192;50.328;7.610;2022-10-16T17:42:54;17.20;99.90